LFRG/DOL METAR and TAF weather

Enter ICAO airport designator
Station Type Date Time Source
LFRG METAR 2019/11/18 04:00 UTC NOAA

LFRG 180400Z AUTO 27006KT 9999 SCT023 BKN032 BKN049 05/04 Q1012


Station Type Date Time Source
LFRG Decoded METAR 2019/11/18 04:00 UTC NOAA

Station name not available
Nov 17, 2019 - 11:00 PM EST / 2019.11.18 0400 UTC
Wind: from the W (270 degrees) at 7 MPH (6 KT):0
Visibility: greater than 7 mile(s):0
Sky conditions: mostly cloudy
Temperature: 41 F (5 C)
Dew Point: 39 F (4 C)
Relative Humidity: 93%
Pressure (altimeter): 29.88 in. Hg (1012 hPa)
ob: LFRG 180400Z AUTO 27006KT 9999 SCT023 BKN032 BKN049 05/04 Q1012
cycle: 4

Station Type Date Time Source
LFRG TAF 2014/12/22 18:42 UTC NOAA

TAF
AMD TAF
AMD LFRG 221837Z 2218/2221 25015KT 9999 OVC015
TEMPO 2218/2221 BKN007 PROB30
TEMPO 2218/2221 25015G25KT 4000 DZ BKN003

Example: see airport list